Time;durP1;ratioP1;P1;durP2;ratioP2;P2;SDS_P1;SDS_P2;PMS_P1;PMS_P2;Temp;Humidity;BMP_temperature;BMP_pressure;BME280_temperature;BME280_humidity;BME280_pressure;Samples;Min_cycle;Max_cycle;Signal;HPM_P1;HPM_P2
2021/11/16 00:00:49;;;;;;;65.82;26.33;;;4.00;99.90;;;;;;4758268;30;20064;-86
2021/11/16 00:03:17;;;;;;;40.25;18.08;;;4.00;99.90;;;;;;4743255;30;20056;-86
2021/11/16 00:05:45;;;;;;;57.28;23.13;;;4.00;99.90;;;;;;4756939;30;20040;-86
2021/11/16 00:08:12;;;;;;;51.83;23.25;;;3.90;99.90;;;;;;4770934;30;20071;-86
2021/11/16 00:10:40;;;;;;;90.95;24.52;;;3.90;99.90;;;;;;4756408;30;20059;-86
2021/11/16 00:13:11;;;;;;;52.55;23.48;;;4.00;99.90;;;;;;4756361;30;20079;-86
2021/11/16 00:15:41;;;;;;;63.55;24.27;;;3.80;99.90;;;;;;4753734;30;20052;-87
2021/11/16 00:18:10;;;;;;;78.35;23.40;;;3.90;99.90;;;;;;4757923;30;20048;-86
2021/11/16 00:20:43;;;;;;;80.15;20.60;;;3.80;99.90;;;;;;4758335;30;20508;-86
2021/11/16 00:23:17;;;;;;;54.80;22.00;;;3.80;99.90;;;;;;4757078;29;20533;-86
2021/11/16 00:25:48;;;;;;;46.63;22.00;;;3.70;99.90;;;;;;4765687;30;20067;-86
2021/11/16 00:28:16;;;;;;;61.50;25.30;;;3.80;99.90;;;;;;4741081;30;20149;-86
2021/11/16 00:30:44;;;;;;;51.10;21.27;;;3.80;99.90;;;;;;4757479;29;20052;-86
2021/11/16 00:33:12;;;;;;;56.78;20.88;;;3.80;99.90;;;;;;4772110;30;20067;-86
2021/11/16 00:35:40;;;;;;;46.00;21.40;;;3.70;99.90;;;;;;4757095;30;20056;-86
2021/11/16 00:38:11;;;;;;;67.45;29.08;;;3.80;99.90;;;;;;4742751;30;20065;-86
2021/11/16 00:40:39;;;;;;;51.67;25.75;;;3.80;99.90;;;;;;4728353;30;20052;-86
2021/11/16 00:43:08;;;;;;;42.03;21.23;;;3.80;99.90;;;;;;4755810;30;20056;-86
2021/11/16 00:45:59;;;;;;;49.35;22.63;;;3.70;99.90;;;;;;4750501;30;20048;-87
2021/11/16 00:48:28;;;;;;;82.47;28.25;;;3.70;99.90;;;;;;4726810;30;20060;-87
2021/11/16 00:50:59;;;;;;;46.72;23.15;;;3.80;99.90;;;;;;4755916;29;20746;-80
2021/11/16 00:53:30;;;;;;;57.60;25.25;;;3.70;99.90;;;;;;4758265;29;20051;-80
2021/11/16 00:55:59;;;;;;;76.22;24.25;;;3.60;99.90;;;;;;4728607;30;20497;-87
2021/11/16 00:58:28;;;;;;;60.47;21.48;;;3.70;99.90;;;;;;4757204;30;20056;-79
2021/11/16 01:00:56;;;;;;;38.72;21.08;;;3.60;99.90;;;;;;4728360;30;20063;-79
2021/11/16 01:03:25;;;;;;;46.78;22.50;;;3.60;99.90;;;;;;4727708;30;20501;-86
2021/11/16 01:05:54;;;;;;;50.00;24.13;;;3.60;99.90;;;;;;4741950;30;20040;-86
2021/11/16 01:08:23;;;;;;;59.13;21.35;;;3.60;99.90;;;;;;4757474;30;20048;-86
2021/11/16 01:10:53;;;;;;;46.67;20.88;;;3.70;99.90;;;;;;4759086;30;20417;-80
2021/11/16 01:13:23;;;;;;;58.95;23.13;;;3.60;99.90;;;;;;4760447;29;20055;-80
2021/11/16 01:15:52;;;;;;;49.22;24.13;;;3.70;99.90;;;;;;4764016;30;20052;-80
2021/11/16 01:18:22;;;;;;;65.38;25.63;;;3.70;99.90;;;;;;4758799;30;20052;-80
2021/11/16 01:20:51;;;;;;;51.08;25.38;;;3.70;99.90;;;;;;4774959;30;20371;-80
2021/11/16 01:23:20;;;;;;;49.25;25.90;;;3.70;99.90;;;;;;4760503;29;20634;-79
2021/11/16 01:25:48;;;;;;;59.92;24.80;;;3.70;99.90;;;;;;4760206;29;20052;-79
2021/11/16 01:28:22;;;;;;;59.20;21.98;;;3.70;99.90;;;;;;4759175;30;20059;-79
2021/11/16 01:30:53;;;;;;;61.80;22.67;;;3.70;99.90;;;;;;4757230;30;20051;-79
2021/11/16 01:33:27;;;;;;;103.90;23.80;;;3.60;99.90;;;;;;4744880;29;20048;-79
2021/11/16 01:35:56;;;;;;;49.55;19.67;;;3.60;99.90;;;;;;4761356;30;20490;-79
2021/11/16 01:38:26;;;;;;;44.78;23.73;;;3.70;99.90;;;;;;4761067;30;20055;-79
2021/11/16 01:40:54;;;;;;;40.92;20.40;;;3.70;99.90;;;;;;4760927;30;20049;-80
2021/11/16 01:43:22;;;;;;;40.53;18.42;;;3.80;99.90;;;;;;4758712;30;20051;-80
2021/11/16 01:46:02;;;;;;;35.95;24.15;;;3.70;99.90;;;;;;4758286;30;20521;-80
2021/11/16 01:48:32;;;;;;;33.72;19.98;;;3.80;99.90;;;;;;4731398;30;20051;-80
2021/11/16 01:51:01;;;;;;;89.82;29.75;;;3.80;99.90;;;;;;4744765;30;20052;-80
2021/11/16 01:53:30;;;;;;;77.35;26.52;;;3.80;99.90;;;;;;4758303;30;20056;-80
2021/11/16 01:56:21;;;;;;;45.17;21.65;;;3.80;99.90;;;;;;4761023;30;20052;-80
2021/11/16 01:59:43;;;;;;;96.35;28.35;;;3.80;99.90;;;;;;4759139;30;20036;-80
2021/11/16 02:03:11;;;;;;;56.58;22.48;;;3.70;99.90;;;;;;4759004;30;20055;-80
2021/11/16 02:06:33;;;;;;;55.70;21.10;;;3.80;99.90;;;;;;4758411;29;20048;-80
2021/11/16 02:09:06;;;;;;;43.25;20.52;;;3.70;99.90;;;;;;4759394;30;20311;-80
2021/11/16 02:11:35;;;;;;;34.42;15.73;;;3.70;99.90;;;;;;4759104;29;20048;-80
2021/11/16 02:14:05;;;;;;;34.13;18.65;;;3.70;99.90;;;;;;4742251;29;20063;-80
2021/11/16 02:16:35;;;;;;;37.95;17.85;;;3.80;99.90;;;;;;4760376;30;20048;-79
2021/11/16 02:19:08;;;;;;;42.85;19.10;;;3.80;99.90;;;;;;4758098;29;20044;-80
2021/11/16 02:21:36;;;;;;;31.95;14.73;;;3.70;99.90;;;;;;4759324;29;20047;-80
2021/11/16 02:24:08;;;;;;;26.83;14.80;;;3.80;99.90;;;;;;4773564;30;20071;-80
2021/11/16 02:26:37;;;;;;;30.73;17.90;;;3.80;99.90;;;;;;4758827;29;20044;-80
2021/11/16 02:29:06;;;;;;;36.72;16.17;;;3.80;99.90;;;;;;4760540;30;20544;-79
2021/11/16 02:31:34;;;;;;;27.90;18.60;;;3.80;99.90;;;;;;4742395;30;20054;-79
2021/11/16 02:34:05;;;;;;;25.27;15.27;;;3.70;99.90;;;;;;4758791;29;20052;-80
2021/11/16 02:36:35;;;;;;;31.27;14.90;;;3.80;99.90;;;;;;4745203;30;20067;-79
2021/11/16 02:39:07;;;;;;;27.45;16.02;;;3.80;99.90;;;;;;4759193;30;20066;-80
2021/11/16 02:41:36;;;;;;;28.08;16.40;;;3.80;99.90;;;;;;4741290;29;20048;-80
2021/11/16 02:44:05;;;;;;;27.48;15.65;;;3.80;99.90;;;;;;4759353;30;20055;-80
2021/11/16 02:46:33;;;;;;;37.05;15.65;;;3.80;99.90;;;;;;4773195;29;20055;-79
2021/11/16 02:49:04;;;;;;;28.83;14.40;;;3.80;99.90;;;;;;4764625;30;20076;-79
2021/11/16 02:51:34;;;;;;;24.95;15.73;;;3.80;99.90;;;;;;4756336;30;20048;-80
2021/11/16 02:54:09;;;;;;;35.30;16.92;;;3.80;99.90;;;;;;4773835;29;20044;-79
2021/11/16 02:56:37;;;;;;;32.88;16.88;;;3.70;99.90;;;;;;4742155;30;20066;-79
2021/11/16 02:59:06;;;;;;;20.50;12.93;;;3.70;99.90;;;;;;4771651;29;20525;-79
2021/11/16 03:01:34;;;;;;;28.58;13.52;;;3.70;99.90;;;;;;4772415;29;20556;-79
2021/11/16 03:04:02;;;;;;;26.20;15.55;;;3.70;99.90;;;;;;4773560;30;20047;-80
2021/11/16 03:06:30;;;;;;;27.23;16.67;;;3.70;99.90;;;;;;4743003;30;20067;-79
2021/11/16 03:08:58;;;;;;;22.85;13.73;;;3.70;99.90;;;;;;4728149;30;20056;-80
2021/11/16 03:11:26;;;;;;;33.42;15.18;;;3.70;99.90;;;;;;4743369;30;20039;-79
2021/11/16 03:13:54;;;;;;;22.30;14.73;;;3.80;99.90;;;;;;4757483;30;20050;-79
2021/11/16 03:16:22;;;;;;;21.48;14.25;;;3.80;99.90;;;;;;4760549;30;20055;-79
2021/11/16 03:18:53;;;;;;;23.35;16.85;;;3.80;99.90;;;;;;4759304;30;20510;-79
2021/11/16 03:21:25;;;;;;;28.33;13.17;;;3.70;99.90;;;;;;4759517;29;20060;-79
2021/11/16 03:23:55;;;;;;;19.58;12.13;;;3.70;99.90;;;;;;4759817;30;20052;-79
2021/11/16 03:26:24;;;;;;;28.60;13.38;;;3.70;99.90;;;;;;4756896;30;20048;-80
2021/11/16 03:28:53;;;;;;;20.88;14.32;;;3.70;99.90;;;;;;4759118;30;20051;-79
2021/11/16 03:31:36;;;;;;;21.90;13.07;;;3.70;99.90;;;;;;4757713;30;20063;-79
2021/11/16 03:34:04;;;;;;;22.13;12.43;;;3.70;99.90;;;;;;4756189;29;20521;-79
2021/11/16 03:36:32;;;;;;;21.67;11.82;;;3.60;99.90;;;;;;4761381;30;20056;-79
2021/11/16 03:39:03;;;;;;;19.13;13.50;;;3.60;99.90;;;;;;4772901;30;20052;-79
2021/11/16 03:41:31;;;;;;;12.85;10.95;;;3.60;99.90;;;;;;4757866;29;20056;-79
2021/11/16 03:44:00;;;;;;;18.48;9.60;;;3.60;99.90;;;;;;4757806;30;20051;-79
2021/11/16 03:46:27;;;;;;;11.85;9.25;;;3.50;99.90;;;;;;4757766;30;20071;-79
2021/11/16 03:48:56;;;;;;;13.85;8.35;;;3.50;99.90;;;;;;4771424;30;20051;-79
2021/11/16 03:51:23;;;;;;;14.02;8.88;;;3.50;99.90;;;;;;4770794;30;20486;-79
2021/11/16 03:53:51;;;;;;;16.95;10.77;;;3.40;99.90;;;;;;4758720;29;20051;-79
2021/11/16 03:56:20;;;;;;;16.00;9.45;;;3.30;99.90;;;;;;4759823;30;20514;-79
2021/11/16 03:58:48;;;;;;;12.25;9.55;;;3.30;99.90;;;;;;4740654;30;20052;-79
2021/11/16 04:01:17;;;;;;;14.52;8.90;;;3.30;99.90;;;;;;4758697;29;20402;-80
2021/11/16 04:03:45;;;;;;;12.27;7.90;;;3.30;99.90;;;;;;4756310;30;20436;-79
2021/11/16 04:06:14;;;;;;;9.60;6.88;;;3.20;99.90;;;;;;4758527;30;20067;-79
2021/11/16 04:08:42;;;;;;;10.82;7.65;;;3.20;99.90;;;;;;4759762;30;20482;-79
2021/11/16 04:11:11;;;;;;;12.40;8.77;;;3.10;99.90;;;;;;4757486;30;20044;-79
2021/11/16 04:13:38;;;;;;;10.13;7.55;;;3.10;99.90;;;;;;4757303;29;20062;-79
2021/11/16 04:16:06;;;;;;;9.32;7.10;;;3.10;99.90;;;;;;4755907;30;20467;-79
2021/11/16 04:18:34;;;;;;;9.43;6.93;;;3.10;99.90;;;;;;4741134;30;20058;-79
2021/11/16 04:21:02;;;;;;;15.77;10.18;;;3.10;99.90;;;;;;4759222;30;20402;-79
2021/11/16 04:23:30;;;;;;;10.55;7.85;;;3.10;99.90;;;;;;4757877;30;20044;-79
2021/11/16 04:25:58;;;;;;;12.77;9.25;;;3.20;99.90;;;;;;4757171;30;20039;-80
2021/11/16 04:28:26;;;;;;;8.57;7.38;;;3.20;99.90;;;;;;4755416;30;20044;-79
2021/11/16 04:30:59;;;;;;;13.93;9.30;;;3.10;99.90;;;;;;4772199;30;20048;-79
2021/11/16 04:33:27;;;;;;;14.88;7.28;;;3.20;99.90;;;;;;4754588;30;20048;-79
2021/11/16 04:35:56;;;;;;;15.88;8.55;;;3.10;99.90;;;;;;4773381;30;20058;-79
2021/11/16 04:38:24;;;;;;;14.25;7.70;;;3.20;99.90;;;;;;4758635;30;20048;-79
2021/11/16 04:40:55;;;;;;;11.80;8.85;;;3.30;99.90;;;;;;4757719;30;20073;-79
2021/11/16 04:43:28;;;;;;;12.13;8.20;;;3.20;99.90;;;;;;4756905;30;20402;-79
2021/11/16 04:46:02;;;;;;;12.63;7.78;;;3.20;99.90;;;;;;4757827;30;20047;-79
2021/11/16 05:04:46;;;;;;;11.93;6.40;;;3.20;99.90;;;;;;4757979;30;20482;-79
2021/11/16 05:07:17;;;;;;;15.05;8.95;;;3.30;99.90;;;;;;4759693;30;20063;-79
2021/11/16 05:09:52;;;;;;;15.13;7.68;;;3.20;99.90;;;;;;4745714;30;20044;-79
2021/11/16 05:12:21;;;;;;;12.95;6.90;;;3.20;99.90;;;;;;4760570;30;20048;-79
2021/11/16 05:14:50;;;;;;;14.85;8.73;;;3.20;99.90;;;;;;4761496;29;20051;-79
2021/11/16 05:17:17;;;;;;;17.67;8.18;;;3.30;99.90;;;;;;4760229;30;20062;-80
2021/11/16 05:19:46;;;;;;;10.65;7.22;;;3.30;99.90;;;;;;4761394;30;20055;-79
2021/11/16 05:22:14;;;;;;;10.65;7.28;;;3.30;99.90;;;;;;4760494;30;20052;-79
2021/11/16 05:24:42;;;;;;;19.08;10.25;;;3.30;99.90;;;;;;4773823;30;20060;-79
2021/11/16 05:27:10;;;;;;;10.80;7.65;;;3.30;99.90;;;;;;4759560;29;20048;-80
2021/11/16 05:29:37;;;;;;;13.35;10.38;;;3.40;99.90;;;;;;4760850;30;20407;-80
2021/11/16 05:32:05;;;;;;;11.20;7.60;;;3.40;99.90;;;;;;4745614;30;20060;-79
2021/11/16 05:34:33;;;;;;;14.18;7.70;;;3.40;99.90;;;;;;4773765;29;20048;-79
2021/11/16 05:37:01;;;;;;;17.85;10.38;;;3.40;99.90;;;;;;4743457;30;20067;-80
2021/11/16 05:39:29;;;;;;;16.73;9.30;;;3.40;99.90;;;;;;4761192;29;20044;-79
2021/11/16 05:41:57;;;;;;;15.45;10.05;;;3.40;99.90;;;;;;4761013;30;20534;-79
2021/11/16 05:44:25;;;;;;;16.70;10.38;;;3.40;99.90;;;;;;4761507;30;20056;-79
2021/11/16 05:46:53;;;;;;;15.43;10.55;;;3.40;99.90;;;;;;4757404;30;20047;-79
2021/11/16 05:49:20;;;;;;;14.43;8.77;;;3.40;99.90;;;;;;4758266;30;20068;-80
2021/11/16 05:51:48;;;;;;;17.20;10.25;;;3.40;99.90;;;;;;4772073;30;20044;-81
2021/11/16 05:54:19;;;;;;;20.33;9.05;;;3.40;99.90;;;;;;4773018;29;20520;-80
2021/11/16 05:56:46;;;;;;;21.42;11.05;;;3.40;99.90;;;;;;4758146;30;20052;-79
2021/11/16 05:59:14;;;;;;;21.08;9.93;;;3.40;99.90;;;;;;4760158;30;20048;-82
2021/11/16 06:01:42;;;;;;;17.02;8.25;;;3.40;99.90;;;;;;4756304;29;20041;-83
2021/11/16 06:04:13;;;;;;;15.90;9.68;;;3.40;99.90;;;;;;4757883;30;20060;-81
2021/11/16 06:06:42;;;;;;;16.17;11.63;;;3.40;99.90;;;;;;4761652;29;20046;-83
2021/11/16 06:09:13;;;;;;;;;;;3.50;99.90;;;;;;4744344;30;20813;-79
2021/11/16 06:11:56;;;;;;;17.45;8.35;;;3.50;99.90;;;;;;4759374;30;19941;-80
2021/11/16 06:15:00;;;;;;;14.82;8.82;;;3.40;99.90;;;;;;4755130;29;20051;-80
2021/11/16 06:17:55;;;;;;;21.45;11.10;;;3.50;99.90;;;;;;4758294;30;20051;-79
2021/11/16 06:20:25;;;;;;;19.45;11.65;;;3.50;99.90;;;;;;4742328;30;20432;-79
2021/11/16 06:22:52;;;;;;;18.05;9.48;;;3.50;99.90;;;;;;4758511;29;20068;-81
2021/11/16 06:25:20;;;;;;;19.95;10.13;;;3.50;99.90;;;;;;4759038;30;20109;-80
2021/11/16 06:27:48;;;;;;;13.88;9.82;;;3.50;99.90;;;;;;4757771;30;20056;-79
2021/11/16 06:30:16;;;;;;;21.08;11.57;;;3.50;99.90;;;;;;4755365;30;20047;-80
2021/11/16 06:32:44;;;;;;;18.55;11.18;;;3.50;99.90;;;;;;4757495;30;20059;-79
2021/11/16 06:35:16;;;;;;;22.10;9.75;;;3.50;99.90;;;;;;4756583;30;20052;-79
2021/11/16 06:37:46;;;;;;;23.02;11.23;;;3.50;99.90;;;;;;4746064;30;20047;-80
2021/11/16 06:40:16;;;;;;;18.60;9.40;;;3.60;99.90;;;;;;4773700;30;20427;-80
2021/11/16 06:42:44;;;;;;;19.23;10.55;;;3.60;99.90;;;;;;4756886;30;20052;-80
2021/11/16 06:45:13;;;;;;;23.17;9.98;;;3.60;99.90;;;;;;4758560;30;20066;-80
2021/11/16 06:47:41;;;;;;;17.08;10.07;;;3.60;99.90;;;;;;4741802;30;20059;-80
2021/11/16 06:50:09;;;;;;;15.98;9.45;;;3.50;99.90;;;;;;4769468;30;20051;-79
2021/11/16 06:52:37;;;;;;;13.88;7.80;;;3.50;99.90;;;;;;4744997;30;20056;-79
2021/11/16 06:55:09;;;;;;;14.93;8.65;;;3.60;99.90;;;;;;4757973;29;20505;-80
2021/11/16 06:57:38;;;;;;;23.15;12.57;;;3.50;99.90;;;;;;4772029;29;20040;-79
2021/11/16 07:00:08;;;;;;;16.90;9.48;;;3.60;99.90;;;;;;4759470;30;20043;-80
2021/11/16 07:02:39;;;;;;;21.75;10.00;;;3.60;99.90;;;;;;4759083;29;20055;-80
2021/11/16 07:05:11;;;;;;;18.40;7.93;;;3.60;99.90;;;;;;4751272;30;20040;-81
2021/11/16 07:07:45;;;;;;;21.42;9.05;;;3.60;99.90;;;;;;4737238;30;20059;-80
2021/11/16 07:10:17;;;;;;;19.95;10.43;;;3.60;99.90;;;;;;4765685;30;20052;-80
2021/11/16 07:12:45;;;;;;;14.82;8.60;;;3.70;99.90;;;;;;4757754;30;20047;-77
2021/11/16 07:15:16;;;;;;;16.42;8.00;;;3.60;99.90;;;;;;4756961;29;20063;-77
2021/11/16 07:17:43;;;;;;;14.90;7.30;;;3.60;99.90;;;;;;4758774;30;20082;-79
2021/11/16 07:20:12;;;;;;;13.82;10.20;;;3.60;99.90;;;;;;4757387;30;20056;-79
2021/11/16 07:22:41;;;;;;;17.42;11.63;;;3.60;99.90;;;;;;4757072;30;20405;-80
2021/11/16 07:25:11;;;;;;;12.40;8.35;;;3.70;99.90;;;;;;4757975;30;20059;-80
2021/11/16 07:27:46;;;;;;;21.73;12.53;;;3.70;99.90;;;;;;4756558;30;20047;-79
2021/11/16 07:30:17;;;;;;;12.20;8.38;;;3.70;99.90;;;;;;4727092;30;20044;-79
2021/11/16 07:33:00;;;;;;;14.90;8.38;;;3.60;99.90;;;;;;4755862;30;20063;-80
2021/11/16 07:35:31;;;;;;;12.45;6.63;;;3.60;99.90;;;;;;4756615;30;20052;-80
2021/11/16 07:38:02;;;;;;;14.23;8.43;;;3.70;99.90;;;;;;4759339;30;20044;-79
2021/11/16 07:40:32;;;;;;;;;;;3.70;99.90;;;;;;4758256;30;20047;-80
2021/11/16 07:43:08;;;;;;;15.00;7.20;;;3.60;99.90;;;;;;4767988;29;19926;-81
2021/11/16 07:45:41;;;;;;;13.95;6.28;;;3.60;99.90;;;;;;4757618;30;20047;-80
2021/11/16 07:48:12;;;;;;;15.70;7.63;;;3.60;99.90;;;;;;4753851;30;20116;-77
2021/11/16 07:50:58;;;;;;;11.70;8.30;;;3.60;99.90;;;;;;4757030;30;20052;-77
2021/11/16 07:53:41;;;;;;;20.05;9.43;;;3.70;99.90;;;;;;4756765;30;20055;-78
2021/11/16 07:56:19;;;;;;;16.10;8.75;;;3.70;99.90;;;;;;4768431;30;20056;-78
2021/11/16 07:58:58;;;;;;;17.98;7.97;;;3.70;99.90;;;;;;4739327;30;20056;-78
2021/11/16 08:04:28;;;;;;;17.52;8.35;;;3.70;99.90;;;;;;4756478;30;20049;-78
2021/11/16 08:07:07;;;;;;;12.45;9.23;;;3.70;99.90;;;;;;4771213;30;20059;-78
2021/11/16 08:14:56;;;;;;;11.57;8.43;;;3.80;99.90;;;;;;4754130;30;20056;-77
2021/11/16 08:17:25;;;;;;;15.70;8.27;;;3.90;99.90;;;;;;4756865;30;20052;-78
2021/11/16 08:20:03;;;;;;;13.70;7.30;;;3.90;99.90;;;;;;4755919;30;20742;-78
2021/11/16 08:22:31;;;;;;;17.90;8.32;;;3.90;99.90;;;;;;4743402;29;20052;-79
2021/11/16 08:24:59;;;;;;;11.05;6.75;;;3.90;99.90;;;;;;4759717;30;20055;-78
2021/11/16 08:27:33;;;;;;;12.68;6.68;;;4.00;99.90;;;;;;4760565;30;20067;-78
2021/11/16 08:30:16;;;;;;;13.70;6.72;;;3.90;99.90;;;;;;4760413;29;20055;-78
2021/11/16 08:32:46;;;;;;;12.93;7.28;;;3.90;99.90;;;;;;4762122;30;20059;-79
2021/11/16 08:35:17;;;;;;;14.13;7.50;;;3.90;99.90;;;;;;4757725;29;20060;-78
2021/11/16 08:37:46;;;;;;;7.35;5.47;;;4.00;99.90;;;;;;4760851;30;20060;-78
2021/11/16 08:40:17;;;;;;;16.30;7.50;;;3.80;99.90;;;;;;4758392;30;20095;-80
2021/11/16 08:42:54;;;;;;;13.25;7.47;;;3.80;99.90;;;;;;4744596;30;20059;-83
2021/11/16 08:45:28;;;;;;;9.95;7.30;;;3.80;99.90;;;;;;4774212;29;20063;-82
2021/11/16 08:48:05;;;;;;;12.93;7.28;;;3.80;99.90;;;;;;4758650;30;20066;-82
2021/11/16 08:50:36;;;;;;;7.97;5.88;;;3.90;99.90;;;;;;4745679;30;20061;-80
2021/11/16 08:53:08;;;;;;;13.10;7.32;;;3.80;99.90;;;;;;4760711;30;20067;-80
2021/11/16 08:55:38;;;;;;;13.02;5.50;;;3.80;99.90;;;;;;4770066;29;20074;-82
2021/11/16 08:58:13;;;;;;;8.35;4.60;;;3.80;99.90;;;;;;4761261;29;20052;-81
2021/11/16 09:00:45;;;;;;;9.18;6.30;;;3.80;99.90;;;;;;4759424;30;20406;-80
2021/11/16 09:03:18;;;;;;;9.85;6.53;;;3.70;99.90;;;;;;4773150;29;20048;-80
2021/11/16 09:05:48;;;;;;;13.45;6.38;;;3.70;99.90;;;;;;4760819;29;20387;-79
2021/11/16 09:08:22;;;;;;;13.43;6.65;;;3.60;99.90;;;;;;4761298;30;20051;-81
2021/11/16 09:11:01;;;;;;;5.03;4.53;;;3.60;99.90;;;;;;4761449;29;20063;-81
2021/11/16 09:13:30;;;;;;;8.18;5.03;;;3.60;99.90;;;;;;4743774;30;20518;-81
2021/11/16 09:16:14;;;;;;;12.23;6.47;;;3.50;99.90;;;;;;4731243;30;20413;-80
2021/11/16 09:18:45;;;;;;;12.50;5.00;;;3.60;99.90;;;;;;4759357;30;20070;-81
2021/11/16 09:21:15;;;;;;;7.68;5.43;;;3.50;99.90;;;;;;4745583;30;20063;-79
2021/11/16 09:23:47;;;;;;;9.35;6.57;;;3.50;99.90;;;;;;4743942;30;20067;-79
2021/11/16 09:29:00;;;;;;;12.98;6.78;;;3.40;99.90;;;;;;4758661;30;20419;-81
2021/11/16 09:31:35;;;;;;;8.45;5.05;;;3.40;99.90;;;;;;4744646;30;20063;-81
2021/11/16 09:34:14;;;;;;;10.05;7.63;;;3.40;99.90;;;;;;4765653;29;20056;-82
2021/11/16 09:37:00;;;;;;;9.68;6.32;;;3.50;99.90;;;;;;4747418;30;20070;-82
2021/11/16 09:39:53;;;;;;;9.68;5.78;;;3.50;99.90;;;;;;4746079;30;20049;-82
2021/11/16 09:42:28;;;;;;;9.30;6.18;;;3.40;99.90;;;;;;4757762;29;20044;-82
2021/11/16 09:45:06;;;;;;;8.98;5.63;;;3.40;99.90;;;;;;4758375;30;20064;-82
2021/11/16 09:47:37;;;;;;;10.23;5.13;;;3.50;99.90;;;;;;4744806;30;20060;-82
2021/11/16 09:50:08;;;;;;;12.20;6.45;;;3.50;99.90;;;;;;4772834;29;20060;-82
2021/11/16 09:53:02;;;;;;;7.68;5.85;;;3.50;99.90;;;;;;4760855;30;20055;-82
2021/11/16 09:55:36;;;;;;;10.95;5.97;;;3.50;99.90;;;;;;4765816;29;20114;-82
2021/11/16 09:58:07;;;;;;;8.38;6.22;;;3.60;99.90;;;;;;4756976;30;20059;-82
2021/11/16 10:00:37;;;;;;;7.15;4.80;;;3.60;99.90;;;;;;4773256;30;20054;-82
2021/11/16 10:03:13;;;;;;;9.73;6.00;;;3.60;99.90;;;;;;4726366;30;20056;-82
2021/11/16 10:05:47;;;;;;;10.07;7.15;;;3.60;99.90;;;;;;4758855;29;20052;-81
2021/11/16 10:08:17;;;;;;;9.65;4.80;;;3.50;99.90;;;;;;4760801;30;20059;-82
2021/11/16 10:10:49;;;;;;;11.77;6.45;;;3.60;99.90;;;;;;4756837;30;20048;-82
2021/11/16 10:13:22;;;;;;;11.05;6.93;;;3.60;99.90;;;;;;4757853;29;20059;-82
2021/11/16 10:15:55;;;;;;;9.52;6.38;;;3.60;99.90;;;;;;4758503;30;20056;-82
2021/11/16 10:18:26;;;;;;;11.20;6.93;;;3.50;99.90;;;;;;4758293;29;20503;-81
2021/11/16 10:20:55;;;;;;;11.80;5.37;;;3.50;99.90;;;;;;4744198;30;20051;-82
2021/11/16 10:23:40;;;;;;;11.07;6.28;;;3.50;99.90;;;;;;4742530;29;20069;-83
2021/11/16 10:26:09;;;;;;;7.45;6.32;;;3.60;99.90;;;;;;4742751;30;20064;-83
2021/11/16 10:28:41;;;;;;;8.13;6.30;;;3.60;99.90;;;;;;4759806;30;20063;-83
2021/11/16 10:31:10;;;;;;;9.38;6.68;;;3.60;99.90;;;;;;4755903;30;20055;-82
2021/11/16 10:33:42;;;;;;;8.70;6.18;;;3.60;99.90;;;;;;4743498;30;20045;-81
2021/11/16 10:36:14;;;;;;;7.30;4.82;;;3.60;99.90;;;;;;4757117;30;20056;-83
2021/11/16 10:38:46;;;;;;;12.73;5.75;;;3.60;99.90;;;;;;4760359;29;20052;-82
2021/11/16 10:41:21;;;;;;;11.20;6.88;;;3.60;99.90;;;;;;4742843;29;20063;-81
2021/11/16 10:43:53;;;;;;;8.95;6.85;;;3.60;99.90;;;;;;4774812;30;20051;-81
2021/11/16 10:46:27;;;;;;;6.57;5.22;;;3.60;99.90;;;;;;4756528;29;20528;-81
2021/11/16 10:49:01;;;;;;;12.02;7.35;;;3.60;99.90;;;;;;4758290;30;20048;-84
2021/11/16 10:51:34;;;;;;;10.82;5.53;;;3.60;99.90;;;;;;4743225;30;20043;-85
2021/11/16 10:54:04;;;;;;;13.02;6.70;;;3.70;99.90;;;;;;4728294;30;20052;-85
2021/11/16 10:56:34;;;;;;;8.88;5.65;;;3.70;99.90;;;;;;4773698;30;20418;-84
2021/11/16 10:59:07;;;;;;;9.93;6.38;;;3.80;99.90;;;;;;4743943;30;20041;-85
2021/11/16 11:01:56;;;;;;;11.25;7.40;;;3.80;99.90;;;;;;4728103;29;20044;-84
2021/11/16 11:04:26;;;;;;;8.43;5.55;;;3.70;99.90;;;;;;4744318;30;20094;-85
2021/11/16 11:07:13;;;;;;;11.57;8.70;;;3.60;99.90;;;;;;5051457;27;21378;-82
2021/11/16 11:09:42;;;;;;;11.02;5.70;;;3.60;99.90;;;;;;5062684;28;20044;-83
2021/11/16 11:12:24;;;;;;;10.68;4.90;;;3.60;99.90;;;;;;5045442;28;20041;-85
2021/11/16 11:14:55;;;;;;;6.68;5.35;;;3.50;99.90;;;;;;5062478;28;20049;-84
2021/11/16 11:17:34;;;;;;;8.75;5.75;;;3.60;99.90;;;;;;5035940;28;20049;-84
2021/11/16 11:20:10;;;;;;;12.10;8.63;;;3.60;99.90;;;;;;5044659;28;20136;-84
2021/11/16 11:22:41;;;;;;;9.40;6.22;;;3.60;99.90;;;;;;5077430;28;20052;-84
2021/11/16 11:25:24;;;;;;;12.23;6.63;;;3.70;99.90;;;;;;5041731;28;20044;-84
2021/11/16 11:30:23;;;;;;;;;;;3.60;99.90;;;;;;5045968;28;20037;-85
2021/11/16 11:32:53;;;;;;;10.95;6.10;;;3.60;99.90;;;;;;5045956;28;20386;-84
2021/11/16 11:35:27;;;;;;;18.30;8.40;;;3.60;99.90;;;;;;5045191;28;20414;-84
2021/11/16 11:38:10;;;;;;;9.32;6.75;;;3.70;99.90;;;;;;5060307;28;20037;-84
2021/11/16 11:40:40;;;;;;;13.02;7.30;;;3.70;99.90;;;;;;5054653;28;20053;-86
2021/11/16 11:43:21;;;;;;;8.60;6.28;;;3.80;99.90;;;;;;5021749;28;20531;-82
2021/11/16 11:45:50;;;;;;;8.50;5.00;;;3.80;99.90;;;;;;5042547;28;20037;-82
2021/11/16 11:48:21;;;;;;;11.80;6.47;;;3.80;99.90;;;;;;5046034;28;20759;-83
2021/11/16 11:50:58;;;;;;;13.60;9.63;;;3.90;99.90;;;;;;5061220;28;20044;-84
2021/11/16 11:53:30;;;;;;;13.00;5.63;;;3.80;99.90;;;;;;5061698;27;20041;-83
2021/11/16 11:56:09;;;;;;;9.60;7.25;;;3.90;99.90;;;;;;5047349;28;20048;-81
2021/11/16 11:58:44;;;;;;;10.13;7.47;;;3.90;99.90;;;;;;5026380;28;20056;-84
2021/11/16 12:01:16;;;;;;;13.75;8.00;;;3.90;99.90;;;;;;5045535;28;20057;-82
2021/11/16 12:03:48;;;;;;;13.43;8.75;;;3.90;99.90;;;;;;5058735;28;20049;-87
2021/11/16 12:06:16;;;;;;;15.20;8.00;;;4.00;99.90;;;;;;5026388;28;20037;-87
2021/11/16 12:08:44;;;;;;;10.98;8.57;;;3.90;99.90;;;;;;5027874;28;20053;-87
2021/11/16 12:11:15;;;;;;;13.93;8.63;;;3.90;99.90;;;;;;5052641;28;20042;-87
2021/11/16 12:13:46;;;;;;;14.70;8.98;;;3.90;99.90;;;;;;5028070;28;20072;-87
2021/11/16 12:16:43;;;;;;;11.43;7.40;;;3.90;99.90;;;;;;5027477;28;20056;-87
2021/11/16 12:19:13;;;;;;;17.50;7.32;;;3.90;99.90;;;;;;5042055;28;20067;-87
2021/11/16 12:21:47;;;;;;;11.68;6.22;;;3.90;99.90;;;;;;5031415;28;20045;-86
2021/11/16 12:24:18;;;;;;;12.48;8.20;;;3.90;99.90;;;;;;5013121;28;20061;-86
2021/11/16 12:27:07;;;;;;;13.20;7.90;;;3.90;99.90;;;;;;5015099;28;20498;-86
2021/11/16 12:29:47;;;;;;;14.70;8.18;;;4.00;99.90;;;;;;5019860;28;20045;-87
2021/11/16 12:32:21;;;;;;;12.40;6.78;;;4.00;99.90;;;;;;5037485;28;20045;-87
2021/11/16 12:35:12;;;;;;;9.55;6.25;;;4.00;99.90;;;;;;5014685;28;20045;-84
2021/11/16 12:37:50;;;;;;;17.15;7.35;;;3.90;99.90;;;;;;5010186;28;20700;-87
2021/11/16 12:40:29;;;;;;;11.07;7.95;;;3.80;99.90;;;;;;5041971;28;20086;-86
2021/11/16 12:43:20;;;;;;;12.25;7.20;;;3.90;99.90;;;;;;5011822;28;20053;-86
2021/11/16 12:45:58;;;;;;;17.77;8.70;;;3.90;99.90;;;;;;5012860;28;20427;-86
2021/11/16 12:48:49;;;;;;;16.52;9.57;;;3.90;99.90;;;;;;5027413;28;20038;-87
2021/11/16 12:51:21;;;;;;;12.32;7.43;;;3.90;99.90;;;;;;4997478;28;20034;-88
2021/11/16 12:54:01;;;;;;;14.05;8.00;;;3.90;99.90;;;;;;5030746;28;20130;-86
2021/11/16 12:56:40;;;;;;;19.33;10.25;;;3.90;99.90;;;;;;5027075;28;20052;-87
2021/11/16 12:59:11;;;;;;;8.93;5.85;;;3.90;99.90;;;;;;5045787;28;20037;-84
2021/11/16 13:01:54;;;;;;;14.90;8.30;;;4.00;99.90;;;;;;5011782;28;20053;-83
2021/11/16 13:04:43;;;;;;;11.68;6.93;;;4.00;99.90;;;;;;5044991;28;20049;-87
2021/11/16 13:07:26;;;;;;;9.57;7.27;;;4.00;99.90;;;;;;5010050;28;20053;-84
2021/11/16 13:10:18;;;;;;;16.45;10.27;;;4.00;99.90;;;;;;5029312;28;20040;-84
2021/11/16 13:12:53;;;;;;;9.95;6.05;;;4.00;99.90;;;;;;5035993;28;20398;-87
2021/11/16 13:15:25;;;;;;;10.27;7.07;;;4.00;99.90;;;;;;5008855;28;20042;-84
2021/11/16 13:18:08;;;;;;;14.43;6.55;;;4.00;99.90;;;;;;5030263;28;20068;-83
2021/11/16 13:20:39;;;;;;;7.10;5.20;;;4.10;99.90;;;;;;5029983;28;20049;-84
2021/11/16 13:23:24;;;;;;;13.07;7.38;;;4.10;99.90;;;;;;5013975;28;20034;-85
2021/11/16 13:25:59;;;;;;;6.07;4.95;;;4.20;99.90;;;;;;5029209;28;20046;-83
2021/11/16 13:31:09;;;;;;;11.13;6.63;;;4.30;99.90;;;;;;5044859;28;20049;-86
2021/11/16 13:33:47;;;;;;;9.77;6.60;;;4.40;99.90;;;;;;4998254;27;20049;-91
2021/11/16 13:36:36;;;;;;;11.15;6.63;;;4.40;99.90;;;;;;4995268;28;20049;-90
2021/11/16 13:39:29;;;;;;;8.75;6.55;;;4.40;99.90;;;;;;5013639;28;20044;-90
2021/11/16 13:42:14;;;;;;;8.95;5.57;;;4.50;99.90;;;;;;5010669;28;20049;-89
2021/11/16 13:44:47;;;;;;;9.13;5.40;;;4.50;99.90;;;;;;5012566;28;20430;-90
2021/11/16 13:47:23;;;;;;;9.10;4.85;;;4.50;99.90;;;;;;5013487;28;20052;-90